createdAt,value
2023-04-09T00:02:01.506Z,88.15
2023-04-09T00:04:27.994Z,87.68
2023-04-09T00:06:54.408Z,87.28
2023-04-09T00:09:20.897Z,87.10
2023-04-09T00:11:47.300Z,86.72
2023-04-09T00:14:13.696Z,86.75
2023-04-09T00:16:40.806Z,86.65
2023-04-09T00:19:07.675Z,86.23
2023-04-09T00:21:34.094Z,87.28
2023-04-09T00:24:00.660Z,86.29
2023-04-09T00:26:27.333Z,86.39
2023-04-09T00:28:53.874Z,86.29
2023-04-09T00:31:21.004Z,86.51
2023-04-09T00:33:47.529Z,86.65
2023-04-09T00:36:14.054Z,87.00
2023-04-09T00:38:40.824Z,86.96
2023-04-09T00:41:07.351Z,89.43
2023-04-09T00:43:33.804Z,89.07
2023-04-09T00:46:00.885Z,88.42
2023-04-09T00:48:27.744Z,88.32
2023-04-09T00:50:54.220Z,87.84
2023-04-09T00:53:20.673Z,87.50
2023-04-09T00:55:47.214Z,87.28
2023-04-09T00:58:14.482Z,87.03
2023-04-09T01:00:40.954Z,87.31
2023-04-09T01:03:08.396Z,87.44
2023-04-09T01:05:54.962Z,88.10
2023-04-09T01:08:55.983Z,88.52
2023-04-09T01:11:36.003Z,88.69
2023-04-09T01:14:14.609Z,88.59
2023-04-09T01:16:44.720Z,88.35
2023-04-09T01:19:34.510Z,88.58
2023-04-09T01:22:02.750Z,88.30
2023-04-09T01:25:09.894Z,88.99
2023-04-09T01:28:24.029Z,89.43
2023-04-09T01:30:57.394Z,89.33
2023-04-09T01:33:27.363Z,89.44
2023-04-09T01:35:54.832Z,89.45
2023-04-09T01:38:22.208Z,89.68
2023-04-09T01:40:52.020Z,89.52
2023-04-09T01:43:20.059Z,89.28
2023-04-09T01:45:47.795Z,89.33
2023-04-09T01:48:16.052Z,89.51
2023-04-09T01:50:43.688Z,91.01
2023-04-09T01:53:10.446Z,91.87
2023-04-09T01:55:36.856Z,92.84
2023-04-09T01:58:03.452Z,93.48
2023-04-09T02:00:38.325Z,93.07
2023-04-09T02:03:13.382Z,92.31
2023-04-09T02:05:46.491Z,92.72
2023-04-09T02:08:20.537Z,93.12
2023-04-09T02:10:56.609Z,93.72
2023-04-09T02:13:24.355Z,94.68
2023-04-09T02:15:51.692Z,95.98
2023-04-09T02:18:29.139Z,97.15
2023-04-09T02:20:57.296Z,97.36
2023-04-09T02:23:24.555Z,97.61
2023-04-09T02:25:52.537Z,96.24
2023-04-09T02:28:19.223Z,94.76
2023-04-09T02:30:45.686Z,93.68
2023-04-09T02:33:12.120Z,93.26
2023-04-09T02:35:38.660Z,93.67
2023-04-09T02:38:05.219Z,93.73
2023-04-09T02:40:31.725Z,92.94
2023-04-09T02:42:58.521Z,92.32
2023-04-09T02:45:25.164Z,92.37
2023-04-09T02:47:51.656Z,93.86
2023-04-09T02:50:18.141Z,94.60
2023-04-09T02:52:46.568Z,94.52
2023-04-09T02:55:13.952Z,93.92
2023-04-09T02:57:40.928Z,94.84
2023-04-09T03:00:08.260Z,94.61
2023-04-09T03:02:35.288Z,94.86
2023-04-09T03:05:02.311Z,94.41
2023-04-09T03:07:28.760Z,93.71
2023-04-09T03:09:55.225Z,95.15
2023-04-09T03:12:21.634Z,94.50
2023-04-09T03:14:48.027Z,95.07
2023-04-09T03:17:14.412Z,95.13
2023-04-09T03:19:40.908Z,96.28
2023-04-09T03:22:07.427Z,95.18
2023-04-09T03:24:33.940Z,94.86
2023-04-09T03:27:00.354Z,93.94
2023-04-09T03:29:26.775Z,93.35
2023-04-09T03:31:53.190Z,93.11
2023-04-09T03:34:19.689Z,94.20
2023-04-09T03:36:46.313Z,93.94
2023-04-09T03:39:12.744Z,93.95
2023-04-09T03:41:39.335Z,93.99
2023-04-09T03:44:06.065Z,93.86
2023-04-09T03:46:32.564Z,93.24
2023-04-09T03:48:59.055Z,92.88
2023-04-09T03:51:25.505Z,92.71
2023-04-09T03:53:51.946Z,92.43
2023-04-09T03:56:18.408Z,92.70
2023-04-09T03:58:44.881Z,92.31
2023-04-09T04:01:11.305Z,92.40
2023-04-09T04:03:37.865Z,92.29
2023-04-09T04:06:04.440Z,91.57
2023-04-09T04:08:30.861Z,91.83
2023-04-09T04:11:03.616Z,91.51
2023-04-09T04:13:30.242Z,91.79
2023-04-09T04:15:56.792Z,91.21
2023-04-09T04:18:23.242Z,91.34
2023-04-09T04:20:49.661Z,91.26
2023-04-09T04:23:16.103Z,91.81
2023-04-09T04:25:42.656Z,92.15
2023-04-09T04:28:09.207Z,92.55
2023-04-09T04:30:35.734Z,92.35
2023-04-09T04:33:02.225Z,92.98
2023-04-09T04:35:28.697Z,92.76
2023-04-09T04:37:55.150Z,92.86
2023-04-09T04:40:21.572Z,92.91
2023-04-09T04:42:47.996Z,92.83
2023-04-09T04:45:14.500Z,92.57
2023-04-09T04:47:40.984Z,92.77
2023-04-09T04:50:08.197Z,93.31
2023-04-09T04:52:34.641Z,93.53
2023-04-09T04:55:01.066Z,93.25
2023-04-09T04:57:27.488Z,93.22
2023-04-09T04:59:53.992Z,93.14
2023-04-09T05:02:20.708Z,92.54
2023-04-09T05:04:47.189Z,93.34
2023-04-09T05:07:13.632Z,93.17
2023-04-09T05:09:40.151Z,92.56
2023-04-09T05:12:06.596Z,92.65
2023-04-09T05:14:33.066Z,92.71
2023-04-09T05:16:59.602Z,92.49
2023-04-09T05:19:26.122Z,92.57
2023-04-09T05:21:52.644Z,93.03
2023-04-09T05:24:19.076Z,92.98
2023-04-09T05:26:45.526Z,93.16
2023-04-09T05:29:11.978Z,93.16
2023-04-09T05:31:40.149Z,94.28
2023-04-09T05:34:06.639Z,94.34
2023-04-09T05:36:33.249Z,94.36
2023-04-09T05:38:59.730Z,94.79
2023-04-09T05:41:26.156Z,94.93
2023-04-09T05:43:52.892Z,93.97
2023-04-09T05:46:19.680Z,93.86
2023-04-09T05:48:46.866Z,93.78
2023-04-09T05:51:13.372Z,94.14
2023-04-09T05:53:39.832Z,94.57
2023-04-09T05:56:16.167Z,95.02
2023-04-09T05:58:43.016Z,94.18
2023-04-09T06:01:10.193Z,93.34
2023-04-09T06:03:36.917Z,93.02
2023-04-09T06:06:03.680Z,91.78
2023-04-09T06:08:30.159Z,91.27
2023-04-09T06:10:56.743Z,90.61
2023-04-09T06:13:23.582Z,89.75
2023-04-09T06:15:50.369Z,88.41
2023-04-09T06:18:17.137Z,87.81
2023-04-09T06:20:43.599Z,86.43
2023-04-09T06:23:10.207Z,84.12
2023-04-09T06:25:36.719Z,84.04
2023-04-09T06:28:05.268Z,82.51
2023-04-09T06:30:32.014Z,80.79
2023-04-09T06:32:58.527Z,75.70
2023-04-09T06:35:25.002Z,79.32
2023-04-09T06:37:51.499Z,76.80
2023-04-09T06:40:19.224Z,74.28
2023-04-09T06:42:47.128Z,76.06
2023-04-09T06:45:13.734Z,74.67
2023-04-09T06:47:40.172Z,64.23
2023-04-09T06:50:07.256Z,70.43
2023-04-09T06:52:33.736Z,64.98
2023-04-09T06:55:00.313Z,63.68
2023-04-09T06:57:27.224Z,63.98
2023-04-09T06:59:53.683Z,63.37
2023-04-09T07:02:20.556Z,62.26
2023-04-09T07:04:47.715Z,60.32
2023-04-09T07:07:14.446Z,61.12
2023-04-09T07:09:40.941Z,61.34
2023-04-09T07:12:07.348Z,60.76
2023-04-09T07:14:33.812Z,62.41
2023-04-09T07:17:00.284Z,63.67
2023-04-09T07:19:26.727Z,61.99
2023-04-09T07:21:53.147Z,61.19
2023-04-09T07:24:19.610Z,62.90
2023-04-09T07:26:46.098Z,62.37
2023-04-09T07:29:12.523Z,61.93
2023-04-09T07:31:39.396Z,61.46
2023-04-09T07:34:06.136Z,61.79
2023-04-09T07:36:32.814Z,61.50
2023-04-09T07:38:59.271Z,60.54
2023-04-09T07:41:25.964Z,58.94
2023-04-09T07:43:52.552Z,59.84
2023-04-09T07:46:21.313Z,59.45
2023-04-09T07:48:49.421Z,58.17
2023-04-09T07:51:17.051Z,61.31
2023-04-09T07:53:43.504Z,57.58
2023-04-09T07:56:10.395Z,55.23
2023-04-09T07:58:38.102Z,55.79
2023-04-09T08:01:04.879Z,57.95
2023-04-09T08:03:31.546Z,55.03
2023-04-09T08:05:58.242Z,56.22
2023-04-09T08:08:25.033Z,57.42
2023-04-09T08:10:51.575Z,55.27
2023-04-09T08:13:18.032Z,55.68
2023-04-09T08:15:44.434Z,55.73
2023-04-09T08:18:10.851Z,55.86
2023-04-09T08:20:37.823Z,55.97
2023-04-09T08:23:04.263Z,56.79
2023-04-09T08:25:30.902Z,55.03
2023-04-09T08:27:58.121Z,54.46
2023-04-09T08:30:24.638Z,54.46
2023-04-09T08:32:51.223Z,55.15
2023-04-09T08:35:17.722Z,55.08
2023-04-09T08:37:44.244Z,56.20
2023-04-09T08:40:11.807Z,53.84
2023-04-09T08:42:45.944Z,52.56
2023-04-09T08:45:13.995Z,53.32
2023-04-09T08:47:42.111Z,53.60
2023-04-09T08:50:09.010Z,52.04
2023-04-09T08:52:36.782Z,51.69
2023-04-09T08:55:03.450Z,55.03
2023-04-09T08:57:29.950Z,54.69
2023-04-09T08:59:56.429Z,49.86
2023-04-09T09:02:24.179Z,48.90
2023-04-09T09:04:50.924Z,53.76
2023-04-09T09:07:17.752Z,46.70
2023-04-09T09:09:54.554Z,48.13
2023-04-09T09:12:41.555Z,45.98
2023-04-09T09:15:30.031Z,46.05
2023-04-09T09:17:58.413Z,48.22
2023-04-09T09:20:26.569Z,43.96
2023-04-09T09:22:55.646Z,44.93
2023-04-09T09:25:26.393Z,49.54
2023-04-09T09:27:53.968Z,44.00
2023-04-09T09:30:23.153Z,42.93
2023-04-09T09:33:10.791Z,43.07
2023-04-09T09:35:50.830Z,46.10
2023-04-09T09:38:18.248Z,46.08
2023-04-09T09:40:44.967Z,42.17
2023-04-09T09:43:14.461Z,44.35
2023-04-09T09:45:43.108Z,42.41
2023-04-09T09:48:12.059Z,41.43
2023-04-09T09:50:41.765Z,43.53
2023-04-09T09:53:10.038Z,43.50
2023-04-09T09:55:41.723Z,44.30
2023-04-09T09:58:23.528Z,44.26
2023-04-09T10:00:52.211Z,40.92
2023-04-09T10:03:25.879Z,40.73
2023-04-09T10:05:53.847Z,46.10
2023-04-09T10:08:22.289Z,42.24
2023-04-09T10:10:50.183Z,40.84
2023-04-09T10:13:21.819Z,40.37
2023-04-09T10:15:48.913Z,40.40
2023-04-09T10:18:17.875Z,40.85
2023-04-09T10:20:58.642Z,40.09
2023-04-09T10:23:36.254Z,39.30
2023-04-09T10:26:03.037Z,39.61
2023-04-09T10:28:30.029Z,41.26
2023-04-09T10:30:57.553Z,40.31
2023-04-09T10:33:27.076Z,38.29
2023-04-09T10:35:55.327Z,42.45
2023-04-09T10:38:39.050Z,38.05
2023-04-09T10:41:16.539Z,38.97
2023-04-09T10:43:43.401Z,39.43
2023-04-09T10:46:30.091Z,39.55
2023-04-09T10:49:10.384Z,41.32
2023-04-09T10:51:40.290Z,41.72
2023-04-09T10:54:27.386Z,41.59
2023-04-09T10:57:09.221Z,41.90
2023-04-09T10:59:46.083Z,43.18
2023-04-09T11:02:21.577Z,40.07
2023-04-09T11:04:54.674Z,42.37
2023-04-09T11:07:25.044Z,42.40
2023-04-09T11:09:51.477Z,43.79
2023-04-09T11:12:17.939Z,43.30
2023-04-09T11:14:44.370Z,44.16
2023-04-09T11:17:10.858Z,44.05
2023-04-09T11:19:37.391Z,45.29
2023-04-09T11:22:06.568Z,42.79
2023-04-09T11:24:42.570Z,42.73
2023-04-09T11:27:09.163Z,44.85
2023-04-09T11:29:36.699Z,42.03
2023-04-09T11:32:05.191Z,41.70
2023-04-09T11:34:32.409Z,43.90
2023-04-09T11:36:59.866Z,42.60
2023-04-09T11:39:26.448Z,43.37
2023-04-09T11:41:53.297Z,43.53
2023-04-09T11:44:21.678Z,43.02
2023-04-09T11:46:49.177Z,43.40
2023-04-09T11:49:16.436Z,45.36
2023-04-09T11:51:43.135Z,43.65
2023-04-09T11:54:12.216Z,43.38
2023-04-09T11:56:38.660Z,42.67
2023-04-09T11:59:05.542Z,43.88
2023-04-09T12:01:33.372Z,43.51
2023-04-09T12:04:01.278Z,44.57
2023-04-09T12:06:28.523Z,42.88
2023-04-09T12:08:58.532Z,43.27
2023-04-09T12:11:32.508Z,43.02
2023-04-09T12:14:01.202Z,43.84
2023-04-09T12:16:34.262Z,44.21
2023-04-09T12:19:07.951Z,44.96
2023-04-09T12:21:55.825Z,43.92
2023-04-09T12:24:26.079Z,43.95
2023-04-09T12:26:52.718Z,42.60
2023-04-09T12:29:21.181Z,43.14
2023-04-09T12:31:47.960Z,43.51
2023-04-09T12:34:14.488Z,44.33
2023-04-09T12:36:41.850Z,43.41
2023-04-09T12:39:11.114Z,42.92
2023-04-09T12:41:37.657Z,42.93
2023-04-09T12:44:05.083Z,42.99
2023-04-09T12:46:32.429Z,43.73
2023-04-09T12:48:59.145Z,43.81
2023-04-09T12:51:25.820Z,43.42
2023-04-09T12:53:52.548Z,43.41
2023-04-09T12:56:19.270Z,43.80
2023-04-09T12:58:45.697Z,42.91
2023-04-09T13:01:12.185Z,43.04
2023-04-09T13:03:41.307Z,44.29
2023-04-09T13:06:08.745Z,44.59
2023-04-09T13:08:35.222Z,43.93
2023-04-09T13:11:01.862Z,45.05
2023-04-09T13:13:28.685Z,44.71
2023-04-09T13:15:55.180Z,44.62
2023-04-09T13:18:21.593Z,43.86
2023-04-09T13:20:48.036Z,43.78
2023-04-09T13:23:14.476Z,43.52
2023-04-09T13:25:40.926Z,42.84
2023-04-09T13:28:07.401Z,43.41
2023-04-09T13:30:33.986Z,42.40
2023-04-09T13:33:00.715Z,42.71
2023-04-09T13:35:27.246Z,42.95
2023-04-09T13:37:53.819Z,42.53
2023-04-09T13:40:20.241Z,43.26
2023-04-09T13:42:46.782Z,43.45
2023-04-09T13:45:13.295Z,42.73
2023-04-09T13:47:39.728Z,42.77
2023-04-09T13:50:07.435Z,43.50
2023-04-09T13:52:33.885Z,44.52
2023-04-09T13:55:00.584Z,43.05
2023-04-09T13:57:27.355Z,42.98
2023-04-09T13:59:53.788Z,42.31
2023-04-09T14:02:20.658Z,43.88
2023-04-09T14:04:47.278Z,42.97
2023-04-09T14:07:13.778Z,43.07
2023-04-09T14:09:40.534Z,44.84
2023-04-09T14:12:07.019Z,44.02
2023-04-09T14:14:33.465Z,44.44
2023-04-09T14:16:59.949Z,43.16
2023-04-09T14:19:26.364Z,44.19
2023-04-09T14:21:53.867Z,43.91
2023-04-09T14:24:22.960Z,42.84
2023-04-09T14:26:51.431Z,44.46
2023-04-09T14:29:17.870Z,44.40
2023-04-09T14:31:44.411Z,44.94
2023-04-09T14:34:10.955Z,45.02
2023-04-09T14:36:37.451Z,44.57
2023-04-09T14:39:03.964Z,45.44
2023-04-09T14:41:30.443Z,45.16
2023-04-09T14:43:56.901Z,44.91
2023-04-09T14:46:23.392Z,44.47
2023-04-09T14:48:49.981Z,44.55
2023-04-09T14:51:16.608Z,44.91
2023-04-09T14:53:43.084Z,44.58
2023-04-09T14:56:09.518Z,44.58
2023-04-09T14:58:36.312Z,45.33
2023-04-09T15:01:04.278Z,45.26
2023-04-09T15:03:30.889Z,45.86
2023-04-09T15:05:59.320Z,45.62
2023-04-09T15:08:25.907Z,44.36
2023-04-09T15:10:52.380Z,44.82
2023-04-09T15:13:18.847Z,44.35
2023-04-09T15:15:45.424Z,44.85
2023-04-09T15:18:11.930Z,44.12
2023-04-09T15:20:39.835Z,43.92
2023-04-09T15:23:06.283Z,43.66
2023-04-09T15:25:32.825Z,43.13
2023-04-09T15:27:59.269Z,42.05
2023-04-09T15:30:26.496Z,41.83
2023-04-09T15:32:53.076Z,43.23
2023-04-09T15:35:24.897Z,43.33
2023-04-09T15:37:51.691Z,42.57
2023-04-09T15:40:18.687Z,42.40
2023-04-09T15:42:45.234Z,43.32
2023-04-09T15:45:14.662Z,43.63
2023-04-09T15:47:41.143Z,43.85
2023-04-09T15:50:08.180Z,43.10
2023-04-09T15:52:34.643Z,43.34
2023-04-09T15:55:01.722Z,43.27
2023-04-09T15:57:28.791Z,43.87
2023-04-09T15:59:55.358Z,44.36
2023-04-09T16:02:23.438Z,44.39
2023-04-09T16:04:51.283Z,43.62
2023-04-09T16:07:17.773Z,44.76
2023-04-09T16:09:46.199Z,44.50
2023-04-09T16:12:12.844Z,45.51
2023-04-09T16:14:40.320Z,45.42
2023-04-09T16:17:07.042Z,45.70
2023-04-09T16:19:33.595Z,45.06
2023-04-09T16:22:00.052Z,46.19
2023-04-09T16:24:27.104Z,46.18
2023-04-09T16:26:53.580Z,46.04
2023-04-09T16:29:20.284Z,46.08
2023-04-09T16:31:46.799Z,45.77
2023-04-09T16:34:13.283Z,45.61
2023-04-09T16:36:41.525Z,46.54
2023-04-09T16:39:07.965Z,46.45
2023-04-09T16:41:36.814Z,46.52
2023-04-09T16:44:03.847Z,45.84
2023-04-09T16:46:30.705Z,46.05
2023-04-09T16:48:57.370Z,46.05
2023-04-09T16:51:23.988Z,46.32
2023-04-09T16:53:50.520Z,45.77
2023-04-09T16:56:17.005Z,46.23
2023-04-09T16:58:43.878Z,46.13
2023-04-09T17:01:10.670Z,46.90
2023-04-09T17:03:37.508Z,46.83
2023-04-09T17:06:04.738Z,46.21
2023-04-09T17:08:31.267Z,46.28
2023-04-09T17:11:02.398Z,46.53
2023-04-09T17:13:31.564Z,46.11
2023-04-09T17:15:58.703Z,46.44
2023-04-09T17:18:25.222Z,46.43
2023-04-09T17:20:52.127Z,46.87
2023-04-09T17:23:18.964Z,46.72
2023-04-09T17:25:46.120Z,46.95
2023-04-09T17:28:12.898Z,46.91
2023-04-09T17:30:39.357Z,47.25
2023-04-09T17:33:05.968Z,47.37
2023-04-09T17:35:33.355Z,47.64
2023-04-09T17:38:01.213Z,48.41
2023-04-09T17:40:28.227Z,48.68
2023-04-09T17:42:55.559Z,48.99
2023-04-09T17:45:22.124Z,49.17
2023-04-09T17:47:51.705Z,49.01
2023-04-09T17:50:18.396Z,49.32
2023-04-09T17:52:45.162Z,49.78
2023-04-09T17:55:12.967Z,49.62
2023-04-09T17:57:40.089Z,49.97
2023-04-09T18:00:08.218Z,50.07
2023-04-09T18:02:35.554Z,50.30
2023-04-09T18:05:06.274Z,50.69
2023-04-09T18:07:35.896Z,50.83
2023-04-09T18:10:03.367Z,50.71
2023-04-09T18:12:30.140Z,50.95
2023-04-09T18:14:56.712Z,51.82
2023-04-09T18:17:23.564Z,51.27
2023-04-09T18:19:50.397Z,51.37
2023-04-09T18:22:16.895Z,51.81
2023-04-09T18:24:43.353Z,52.52
2023-04-09T18:27:09.985Z,52.66
2023-04-09T18:29:36.712Z,52.80
2023-04-09T18:32:03.540Z,52.70
2023-04-09T18:34:30.079Z,53.21
2023-04-09T18:36:57.424Z,53.71
2023-04-09T18:39:24.393Z,53.46
2023-04-09T18:41:51.241Z,53.83
2023-04-09T18:44:17.799Z,53.63
2023-04-09T18:46:44.464Z,53.96
2023-04-09T18:49:11.172Z,53.88
2023-04-09T18:51:37.703Z,53.97
2023-04-09T18:54:04.930Z,54.56
2023-04-09T18:56:37.377Z,54.81
2023-04-09T18:59:03.845Z,55.43
2023-04-09T19:01:30.726Z,55.55
2023-04-09T19:03:57.353Z,55.53
2023-04-09T19:06:25.468Z,55.38
2023-04-09T19:08:57.873Z,55.54
2023-04-09T19:11:25.925Z,55.81
2023-04-09T19:13:52.567Z,55.46
2023-04-09T19:16:20.287Z,55.25
2023-04-09T19:18:47.051Z,55.35
2023-04-09T19:21:13.922Z,55.70
2023-04-09T19:23:40.398Z,55.93
2023-04-09T19:26:15.483Z,55.80
2023-04-09T19:28:41.921Z,56.05
2023-04-09T19:31:08.511Z,55.84
2023-04-09T19:33:35.372Z,55.63
2023-04-09T19:36:01.846Z,56.09
2023-04-09T19:38:28.267Z,56.18
2023-04-09T19:40:54.707Z,55.89
2023-04-09T19:43:21.147Z,55.96
2023-04-09T19:45:47.578Z,55.89
2023-04-09T19:48:14.176Z,54.92
2023-04-09T19:50:41.181Z,54.45
2023-04-09T19:53:07.749Z,54.57
2023-04-09T19:55:34.944Z,54.58
2023-04-09T19:58:01.857Z,54.52
2023-04-09T20:00:28.888Z,53.96
2023-04-09T20:02:55.898Z,54.59
2023-04-09T20:05:22.921Z,54.19
2023-04-09T20:07:50.578Z,54.22
2023-04-09T20:10:17.227Z,53.77
2023-04-09T20:12:47.413Z,53.49
2023-04-09T20:15:14.281Z,53.09
2023-04-09T20:17:41.840Z,53.06
2023-04-09T20:20:08.797Z,52.95
2023-04-09T20:22:35.578Z,52.65
2023-04-09T20:25:02.127Z,53.06
2023-04-09T20:27:28.671Z,53.11
2023-04-09T20:29:55.332Z,52.92
2023-04-09T20:32:22.587Z,52.64
2023-04-09T20:34:49.546Z,53.87
2023-04-09T20:37:16.198Z,53.93
2023-04-09T20:39:42.710Z,54.27
2023-04-09T20:42:09.204Z,54.05
2023-04-09T20:44:35.696Z,54.50
2023-04-09T20:47:02.205Z,55.33
2023-04-09T20:49:28.930Z,55.61
2023-04-09T20:51:55.709Z,55.91
2023-04-09T20:54:23.142Z,55.44
2023-04-09T20:56:50.022Z,55.00
2023-04-09T20:59:17.156Z,56.02
2023-04-09T21:01:44.130Z,55.08
2023-04-09T21:04:11.022Z,54.74
2023-04-09T21:06:37.542Z,55.44
2023-04-09T21:09:04.141Z,56.24
2023-04-09T21:11:30.790Z,55.29
2023-04-09T21:13:57.803Z,55.24
2023-04-09T21:16:26.071Z,54.94
2023-04-09T21:18:53.010Z,55.32
2023-04-09T21:21:19.705Z,55.16
2023-04-09T21:23:46.174Z,55.64
2023-04-09T21:26:13.165Z,55.07
2023-04-09T21:28:39.593Z,55.00
2023-04-09T21:31:06.256Z,55.21
2023-04-09T21:33:32.793Z,55.41
2023-04-09T21:35:59.314Z,54.94
2023-04-09T21:38:25.995Z,55.45
2023-04-09T21:40:52.472Z,55.60
2023-04-09T21:43:18.904Z,55.67
2023-04-09T21:45:45.445Z,55.33
2023-04-09T21:48:12.359Z,55.35
2023-04-09T21:50:38.799Z,56.24
2023-04-09T21:53:05.583Z,55.63
2023-04-09T21:55:32.083Z,55.71
2023-04-09T21:57:58.552Z,56.33
2023-04-09T22:00:24.957Z,56.60
2023-04-09T22:02:51.690Z,56.63
2023-04-09T22:05:18.367Z,56.83
2023-04-09T22:07:45.165Z,57.35
2023-04-09T22:10:11.629Z,57.51
2023-04-09T22:12:38.095Z,57.94
2023-04-09T22:15:05.761Z,57.88
2023-04-09T22:17:32.288Z,58.07
2023-04-09T22:19:58.734Z,58.55
2023-04-09T22:22:25.389Z,58.93
2023-04-09T22:24:51.972Z,58.73
2023-04-09T22:27:18.491Z,59.73
2023-04-09T22:29:44.943Z,59.73
2023-04-09T22:32:11.373Z,59.62
2023-04-09T22:34:37.862Z,59.77
2023-04-09T22:37:04.288Z,59.27
2023-04-09T22:39:31.084Z,60.13
2023-04-09T22:41:58.413Z,60.80
2023-04-09T22:44:25.628Z,61.59
2023-04-09T22:46:52.259Z,61.22
2023-04-09T22:49:18.792Z,61.31
2023-04-09T22:51:46.297Z,61.80
2023-04-09T22:54:12.759Z,61.69
2023-04-09T22:56:39.646Z,62.63
2023-04-09T22:59:06.303Z,63.70
2023-04-09T23:01:32.874Z,63.34
2023-04-09T23:03:59.317Z,64.00
2023-04-09T23:06:25.795Z,63.06
2023-04-09T23:08:52.454Z,63.00
2023-04-09T23:11:19.269Z,63.35
2023-04-09T23:13:45.825Z,63.86
2023-04-09T23:16:13.113Z,63.91
2023-04-09T23:18:40.420Z,64.59
2023-04-09T23:21:08.402Z,64.69
2023-04-09T23:23:36.038Z,64.95
2023-04-09T23:26:03.215Z,65.78
2023-04-09T23:28:30.203Z,67.37
2023-04-09T23:30:56.834Z,64.74
2023-04-09T23:33:23.746Z,65.29
2023-04-09T23:35:50.778Z,65.89
2023-04-09T23:38:17.287Z,67.20
2023-04-09T23:40:43.705Z,66.31
2023-04-09T23:43:10.225Z,67.44
2023-04-09T23:45:36.828Z,66.90
2023-04-09T23:48:05.069Z,67.02
2023-04-09T23:50:31.626Z,66.29
2023-04-09T23:53:00.898Z,67.96
2023-04-09T23:55:27.841Z,69.05
2023-04-09T23:57:54.367Z,68.82
